Sanpo Maru No.5 — JL6343 — position and weather

sailwx.info

Track history (hours):
 
Tides and Currents Weather Stations Pressure Air Temp Water Temp Dewpoint Dewpoint Depression Visibility Wind Speed Wind Dir Waves Ship Positions

Sanpo Maru No.5

Last reported at 2014-Aug-29 14:12 UTC. Time now 2014-Aug-29 20:23 UTC.
Position N 34°51' E 139°34'.

Length 71 m; draft 3.5 m.

Type: Ship. MMSI: 431500283.

Date/timePositionNaut miles runAvg speedWind from/ knotsBaromVisibWave heightAir tempDewpointWater temp
2014-Aug-29 14:12N 34°51' E 139°34'711.0
2014-Aug-29 13:33N 34°51' E 139°43'1211.6
2014-Aug-29 12:34N 34°52' E 139°57'1211.8
2014-Aug-29 11:32N 34°59' E 140°09'2311.8
2014-Aug-29 09:33N 35°15' E 140°30'1211.5
2014-Aug-29 08:32N 35°24' E 140°39'1211.6
2014-Aug-29 07:30N 35°33' E 140°48'2211.1
2014-Aug-29 05:30N 35°55' E 140°53'10 0.9
2014-Aug-28 18:29N 35°45' E 140°55'22 9.2
2014-Aug-28 16:06N 35°26' E 140°41'910.0
2014-Aug-28 15:13N 35°20' E 140°35'6 9.4
2014-Aug-28 14:33N 35°15' E 140°30'13 9.3
2014-Aug-28 13:09N 35°05' E 140°20'6 9.6
2014-Aug-28 12:33N 35°01' E 140°14'10 9.7
2014-Aug-28 11:33N 34°56' E 140°04'11 9.2
2014-Aug-28 10:21N 34°52' E 139°52'9 9.5
2014-Aug-28 09:24N 34°59' E 139°44'910.5
2014-Aug-28 08:33N 35°08' E 139°45'1110.7
2014-Aug-28 07:33N 35°18' E 139°44'9 9.4
2014-Aug-28 06:33N 35°27' E 139°47'4 3.8
2014-Aug-28 05:33N 35°31' E 139°46'0 0.0
2014-Aug-28 04:33N 35°31' E 139°46'2 2.0
2014-Aug-28 03:33N 35°30' E 139°48'2 1.6
2014-Aug-28 02:28N 35°30' E 139°50'0 0.0
2014-Aug-28 01:31N 35°30' E 139°50'3 3.6
2014-Aug-28 00:33N 35°30' E 139°54'6 5.9
2014-Aug-27 23:32N 35°30' E 140°02'0 0.0
2014-Aug-27 22:32N 35°30' E 140°02'1 1.1
2014-Aug-27 21:23N 35°30' E 140°00'0 0.0
2014-Aug-27 20:32N 35°30' E 140°00'0 0.0
2014-Aug-27 19:32N 35°30' E 140°00'0 0.0
2014-Aug-27 18:32N 35°30' E 140°00'8 8.4
2014-Aug-27 17:33N 35°28' E 139°51'1010.5
2014-Aug-27 16:34N 35°19' E 139°44'9 9.5
2014-Aug-27 15:34N 35°10' E 139°46'1110.6
2014-Aug-27 14:33N 34°59' E 139°44'13 9.7
2014-Aug-27 13:16N 34°52' E 139°57'912.1
2014-Aug-27 12:30N 34°57' E 140°06'2411.4
2014-Aug-27 10:24N 35°13' E 140°29'1211.2
2014-Aug-27 09:22N 35°22' E 140°37'1011.7
2014-Aug-27 08:28N 35°30' E 140°44'17 0.9
2014-Aug-26 12:17N 35°16' E 140°32'1910.4
2014-Aug-26 10:28N 35°03' E 140°16'1011.1
2014-Aug-26 09:33N 34°57' E 140°05'18 8.6
2014-Aug-26 07:30N 34°59' E 139°44'1010.8
2014-Aug-26 06:33N 35°10' E 139°45'10 9.6
2014-Aug-26 05:33N 35°19' E 139°43'9 9.3
2014-Aug-26 04:33N 35°28' E 139°48'1110.9
2014-Aug-26 03:34N 35°30' E 140°01'1 1.0
2014-Aug-26 02:25N 35°30' E 140°02'0 0.0
2014-Aug-26 01:31N 35°30' E 140°02'1 1.3
2014-Aug-26 00:33N 35°30' E 140°00'0 0.0
2014-Aug-25 23:18N 35°30' E 140°00'0 0.0
2014-Aug-25 22:33N 35°30' E 140°00'0 0.0
2014-Aug-25 21:30N 35°30' E 140°00'0 0.0
2014-Aug-25 20:33N 35°30' E 140°00'0 0.0
2014-Aug-25 19:30N 35°30' E 140°00'0 0.0
2014-Aug-25 18:33N 35°30' E 140°00'1110.5
2014-Aug-25 17:33N 35°26' E 139°48'1010.2
2014-Aug-25 16:33N 35°16' E 139°46'1110.8
2014-Aug-25 15:34N 35°05' E 139°46'1110.5
2014-Aug-25 14:33N 34°55' E 139°46'2110.0
2014-Aug-25 12:26N 34°60' E 140°11'1110.9
2014-Aug-25 11:23N 35°07' E 140°22'810.2
2014-Aug-25 10:33N 35°13' E 140°29'1111.1
2014-Aug-25 09:32N 35°22' E 140°37'1211.4
2014-Aug-25 08:28N 35°32' E 140°46'1111.6
2014-Aug-25 07:31N 35°41' E 140°54'1411.4
2014-Aug-25 06:18N 35°55' E 140°52'3 0.2
2014-Aug-24 14:15N 35°52' E 140°54'3210.3
2014-Aug-24 11:07N 35°23' E 140°38'811.0
2014-Aug-24 10:21N 35°16' E 140°32'2111.3
2014-Aug-24 08:32N 35°02' E 140°14'1111.4
2014-Aug-24 07:33N 34°56' E 140°02'1211.5
2014-Aug-24 06:33N 34°53' E 139°49'1010.1
2014-Aug-24 05:33N 35°01' E 139°43'1110.5
2014-Aug-24 04:33N 35°12' E 139°46'9 9.4
2014-Aug-24 03:34N 35°20' E 139°43'10 9.8
2014-Aug-24 02:33N 35°29' E 139°49'1010.1
2014-Aug-24 01:34N 35°30' E 140°02'0 0.2
2014-Aug-24 00:26N 35°30' E 140°02'0 0.0
2014-Aug-23 23:32N 35°30' E 140°02'1 1.2
2014-Aug-23 22:33N 35°31' E 140°01'7 6.7
2014-Aug-23 21:33N 35°36' E 140°06'0 0.3
2014-Aug-23 20:33N 35°36' E 140°06'0 0.0
2014-Aug-23 19:33N 35°36' E 140°06'0 0.0
2014-Aug-23 03:33N 35°36' E 140°06'0 0.0
2014-Aug-23 02:33N 35°36' E 140°06'0 0.0
2014-Aug-23 01:21N 35°36' E 140°06'0 0.0
2014-Aug-23 00:33N 35°36' E 140°06'0 0.0
2014-Aug-22 23:27N 35°36' E 140°06'4 4.1
2014-Aug-22 22:23N 35°34' E 140°02'0 0.0
2014-Aug-22 21:23N 35°34' E 140°02'0 0.0
2014-Aug-22 20:29N 35°34' E 140°02'0 0.0
2014-Aug-22 19:29N 35°34' E 140°02'8 8.3
2014-Aug-22 18:33N 35°30' E 139°54'1211.5
2014-Aug-22 17:33N 35°21' E 139°45'1111.2
2014-Aug-22 16:33N 35°10' E 139°47'1211.7
2014-Aug-22 15:33N 34°58' E 139°44'12 9.5
2014-Aug-22 14:17N 34°52' E 139°57'5010.4
2014-Aug-22 09:29N 35°26' E 140°41'1010.5
2014-Aug-22 08:32N 35°34' E 140°49'1010.2
2014-Aug-22 07:33N 35°43' E 140°55'1511.0
2014-Aug-22 06:14N 35°57' E 140°52'2 0.1
2014-Aug-21 16:25N 35°55' E 140°52'910.4
2014-Aug-21 15:33N 35°47' E 140°55'3110.0
2014-Aug-21 12:25N 35°20' E 140°36'2210.9
2014-Aug-21 10:23N 35°03' E 140°17'1011.6
2014-Aug-21 09:30N 34°58' E 140°07'1510.8
2014-Aug-21 08:05N 34°53' E 139°49'710.1
2014-Aug-21 07:24N 34°58' E 139°44'910.4
2014-Aug-21 06:33N 35°07' E 139°45'1010.1
2014-Aug-21 05:33N 35°17' E 139°45'9 9.1
2014-Aug-21 04:34N 35°26' E 139°45'4 4.0
2014-Aug-21 03:33N 35°29' E 139°49'0 0.3
2014-Aug-21 02:33N 35°29' E 139°49'3 2.7
2014-Aug-21 01:33N 35°31' E 139°46'0 0.0
2014-Aug-21 00:33N 35°31' E 139°46'0 0.0
2014-Aug-20 23:33N 35°31' E 139°46'0 0.0
2014-Aug-20 22:33N 35°31' E 139°46'4 3.6
2014-Aug-20 21:33N 35°29' E 139°49'0 0.1
2014-Aug-20 20:34N 35°29' E 139°49'0 0.1
2014-Aug-20 19:21N 35°29' E 139°49'5 6.8
2014-Aug-20 18:34N 35°24' E 139°46'1010.3
2014-Aug-20 17:34N 35°13' E 139°47'1211.4
2014-Aug-20 16:33N 35°02' E 139°45'1010.2
2014-Aug-20 15:33N 34°52' E 139°49'18 9.1
2014-Aug-20 13:32N 34°59' E 140°10'11 9.8
2014-Aug-20 12:28N 35°05' E 140°20'1010.6
2014-Aug-20 11:31N 35°13' E 140°28'1111.1
2014-Aug-20 10:29N 35°22' E 140°37'1010.6
2014-Aug-20 09:33N 35°30' E 140°45'1210.7
2014-Aug-20 08:29N 35°39' E 140°53'1111.0
2014-Aug-20 07:31N 35°49' E 140°54'1111.4
2014-Aug-20 06:31N 36°00' E 140°51'8 0.8
2014-Aug-19 20:19N 35°53' E 140°53'810.4
2014-Aug-19 19:33N 35°45' E 140°55'2410.3
2014-Aug-19 17:15N 35°25' E 140°40'1110.6
2014-Aug-19 16:14N 35°16' E 140°32'1911.1
2014-Aug-19 14:33N 35°03' E 140°16'  
Track history (hours):
 
Tides and Currents Weather Stations Pressure Air Temp Water Temp Dewpoint Dewpoint Depression Visibility Wind Speed Wind Dir Waves Ship Positions

Sanpo Maru No.5

Last reported at 2014-Aug-29 14:12 UTC. Time now 2014-Aug-29 20:23 UTC.
Position N 34°51' E 139°34'.

Length 71 m; draft 3.5 m.

Type: Ship. MMSI: 431500283.

Date/timePositionNaut miles runAvg speedWind from/ knotsBaromVisibWave heightAir tempDewpointWater temp
2014-Aug-29 14:12N 34°51' E 139°34'711.0
2014-Aug-29 13:33N 34°51' E 139°43'1211.6
2014-Aug-29 12:34N 34°52' E 139°57'1211.8
2014-Aug-29 11:32N 34°59' E 140°09'2311.8
2014-Aug-29 09:33N 35°15' E 140°30'1211.5
2014-Aug-29 08:32N 35°24' E 140°39'1211.6
2014-Aug-29 07:30N 35°33' E 140°48'2211.1
2014-Aug-29 05:30N 35°55' E 140°53'10 0.9
2014-Aug-28 18:29N 35°45' E 140°55'22 9.2
2014-Aug-28 16:06N 35°26' E 140°41'910.0
2014-Aug-28 15:13N 35°20' E 140°35'6 9.4
2014-Aug-28 14:33N 35°15' E 140°30'13 9.3
2014-Aug-28 13:09N 35°05' E 140°20'6 9.6
2014-Aug-28 12:33N 35°01' E 140°14'10 9.7
2014-Aug-28 11:33N 34°56' E 140°04'11 9.2
2014-Aug-28 10:21N 34°52' E 139°52'9 9.5
2014-Aug-28 09:24N 34°59' E 139°44'910.5
2014-Aug-28 08:33N 35°08' E 139°45'1110.7
2014-Aug-28 07:33N 35°18' E 139°44'9 9.4
2014-Aug-28 06:33N 35°27' E 139°47'4 3.8
2014-Aug-28 05:33N 35°31' E 139°46'0 0.0
2014-Aug-28 04:33N 35°31' E 139°46'2 2.0
2014-Aug-28 03:33N 35°30' E 139°48'2 1.6
2014-Aug-28 02:28N 35°30' E 139°50'0 0.0
2014-Aug-28 01:31N 35°30' E 139°50'3 3.6
2014-Aug-28 00:33N 35°30' E 139°54'6 5.9
2014-Aug-27 23:32N 35°30' E 140°02'0 0.0
2014-Aug-27 22:32N 35°30' E 140°02'1 1.1
2014-Aug-27 21:23N 35°30' E 140°00'0 0.0
2014-Aug-27 20:32N 35°30' E 140°00'0 0.0
2014-Aug-27 19:32N 35°30' E 140°00'0 0.0
2014-Aug-27 18:32N 35°30' E 140°00'8 8.4
2014-Aug-27 17:33N 35°28' E 139°51'1010.5
2014-Aug-27 16:34N 35°19' E 139°44'9 9.5
2014-Aug-27 15:34N 35°10' E 139°46'1110.6
2014-Aug-27 14:33N 34°59' E 139°44'13 9.7
2014-Aug-27 13:16N 34°52' E 139°57'912.1
2014-Aug-27 12:30N 34°57' E 140°06'2411.4
2014-Aug-27 10:24N 35°13' E 140°29'1211.2
2014-Aug-27 09:22N 35°22' E 140°37'1011.7
2014-Aug-27 08:28N 35°30' E 140°44'17 0.9
2014-Aug-26 12:17N 35°16' E 140°32'1910.4
2014-Aug-26 10:28N 35°03' E 140°16'1011.1
2014-Aug-26 09:33N 34°57' E 140°05'18 8.6
2014-Aug-26 07:30N 34°59' E 139°44'1010.8
2014-Aug-26 06:33N 35°10' E 139°45'10 9.6
2014-Aug-26 05:33N 35°19' E 139°43'9 9.3
2014-Aug-26 04:33N 35°28' E 139°48'1110.9
2014-Aug-26 03:34N 35°30' E 140°01'1 1.0
2014-Aug-26 02:25N 35°30' E 140°02'0 0.0
2014-Aug-26 01:31N 35°30' E 140°02'1 1.3
2014-Aug-26 00:33N 35°30' E 140°00'0 0.0
2014-Aug-25 23:18N 35°30' E 140°00'0 0.0
2014-Aug-25 22:33N 35°30' E 140°00'0 0.0
2014-Aug-25 21:30N 35°30' E 140°00'0 0.0
2014-Aug-25 20:33N 35°30' E 140°00'0 0.0
2014-Aug-25 19:30N 35°30' E 140°00'0 0.0
2014-Aug-25 18:33N 35°30' E 140°00'1110.5
2014-Aug-25 17:33N 35°26' E 139°48'1010.2
2014-Aug-25 16:33N 35°16' E 139°46'1110.8
2014-Aug-25 15:34N 35°05' E 139°46'1110.5
2014-Aug-25 14:33N 34°55' E 139°46'2110.0
2014-Aug-25 12:26N 34°60' E 140°11'1110.9
2014-Aug-25 11:23N 35°07' E 140°22'810.2
2014-Aug-25 10:33N 35°13' E 140°29'1111.1
2014-Aug-25 09:32N 35°22' E 140°37'1211.4
2014-Aug-25 08:28N 35°32' E 140°46'1111.6
2014-Aug-25 07:31N 35°41' E 140°54'1411.4
2014-Aug-25 06:18N 35°55' E 140°52'3 0.2
2014-Aug-24 14:15N 35°52' E 140°54'3210.3
2014-Aug-24 11:07N 35°23' E 140°38'811.0
2014-Aug-24 10:21N 35°16' E 140°32'2111.3
2014-Aug-24 08:32N 35°02' E 140°14'1111.4
2014-Aug-24 07:33N 34°56' E 140°02'1211.5
2014-Aug-24 06:33N 34°53' E 139°49'1010.1
2014-Aug-24 05:33N 35°01' E 139°43'1110.5
2014-Aug-24 04:33N 35°12' E 139°46'9 9.4
2014-Aug-24 03:34N 35°20' E 139°43'10 9.8
2014-Aug-24 02:33N 35°29' E 139°49'1010.1
2014-Aug-24 01:34N 35°30' E 140°02'0 0.2
2014-Aug-24 00:26N 35°30' E 140°02'0 0.0
2014-Aug-23 23:32N 35°30' E 140°02'1 1.2
2014-Aug-23 22:33N 35°31' E 140°01'7 6.7
2014-Aug-23 21:33N 35°36' E 140°06'0 0.3
2014-Aug-23 20:33N 35°36' E 140°06'0 0.0
2014-Aug-23 19:33N 35°36' E 140°06'0 0.0
2014-Aug-23 03:33N 35°36' E 140°06'0 0.0
2014-Aug-23 02:33N 35°36' E 140°06'0 0.0
2014-Aug-23 01:21N 35°36' E 140°06'0 0.0
2014-Aug-23 00:33N 35°36' E 140°06'0 0.0
2014-Aug-22 23:27N 35°36' E 140°06'4 4.1
2014-Aug-22 22:23N 35°34' E 140°02'0 0.0
2014-Aug-22 21:23N 35°34' E 140°02'0 0.0
2014-Aug-22 20:29N 35°34' E 140°02'0 0.0
2014-Aug-22 19:29N 35°34' E 140°02'8 8.3
2014-Aug-22 18:33N 35°30' E 139°54'1211.5
2014-Aug-22 17:33N 35°21' E 139°45'1111.2
2014-Aug-22 16:33N 35°10' E 139°47'1211.7
2014-Aug-22 15:33N 34°58' E 139°44'12 9.5
2014-Aug-22 14:17N 34°52' E 139°57'5010.4
2014-Aug-22 09:29N 35°26' E 140°41'1010.5
2014-Aug-22 08:32N 35°34' E 140°49'1010.2
2014-Aug-22 07:33N 35°43' E 140°55'1511.0
2014-Aug-22 06:14N 35°57' E 140°52'2 0.1
2014-Aug-21 16:25N 35°55' E 140°52'910.4
2014-Aug-21 15:33N 35°47' E 140°55'3110.0
2014-Aug-21 12:25N 35°20' E 140°36'2210.9
2014-Aug-21 10:23N 35°03' E 140°17'1011.6
2014-Aug-21 09:30N 34°58' E 140°07'1510.8
2014-Aug-21 08:05N 34°53' E 139°49'710.1
2014-Aug-21 07:24N 34°58' E 139°44'910.4
2014-Aug-21 06:33N 35°07' E 139°45'1010.1
2014-Aug-21 05:33N 35°17' E 139°45'9 9.1
2014-Aug-21 04:34N 35°26' E 139°45'4 4.0
2014-Aug-21 03:33N 35°29' E 139°49'0 0.3
2014-Aug-21 02:33N 35°29' E 139°49'3 2.7
2014-Aug-21 01:33N 35°31' E 139°46'0 0.0
2014-Aug-21 00:33N 35°31' E 139°46'0 0.0
2014-Aug-20 23:33N 35°31' E 139°46'0 0.0
2014-Aug-20 22:33N 35°31' E 139°46'4 3.6
2014-Aug-20 21:33N 35°29' E 139°49'0 0.1
2014-Aug-20 20:34N 35°29' E 139°49'0 0.1
2014-Aug-20 19:21N 35°29' E 139°49'5 6.8
2014-Aug-20 18:34N 35°24' E 139°46'1010.3
2014-Aug-20 17:34N 35°13' E 139°47'1211.4
2014-Aug-20 16:33N 35°02' E 139°45'1010.2
2014-Aug-20 15:33N 34°52' E 139°49'18 9.1
2014-Aug-20 13:32N 34°59' E 140°10'11 9.8
2014-Aug-20 12:28N 35°05' E 140°20'1010.6
2014-Aug-20 11:31N 35°13' E 140°28'1111.1
2014-Aug-20 10:29N 35°22' E 140°37'1010.6
2014-Aug-20 09:33N 35°30' E 140°45'1210.7
2014-Aug-20 08:29N 35°39' E 140°53'1111.0
2014-Aug-20 07:31N 35°49' E 140°54'1111.4
2014-Aug-20 06:31N 36°00' E 140°51'8 0.8
2014-Aug-19 20:19N 35°53' E 140°53'810.4
2014-Aug-19 19:33N 35°45' E 140°55'2410.3
2014-Aug-19 17:15N 35°25' E 140°40'1110.6
2014-Aug-19 16:14N 35°16' E 140°32'1911.1
2014-Aug-19 14:33N 35°03' E 140°16'  

Dump ship's entire track history